Hicksville, OH

12:00 PM EST on March 06, 2015 (GMT -0500)
Hicksville | Change Station
CLOSE
Current Station
Personal Weather Station
Location: Hicksville, OH
Elevation: 774 ft
Nearby Weather Stations

Elev 774 ft 41.30 °N, 84.76 °W | Updated 8 minutes ago

Clear
Clear
22.8 °F
Feels Like 17 °F
N
4.3
Wind Variable Wind from SSW

Today
High -- | Low -- °F
--% Chance of Precip.
Yesterday
High -- | Low -- °F
Precip. -- in
7:05 AM 6:35 PM
Full, 99% visible
Pressure 30.53 in
Visibility 10.0 miles
Clouds Clear
Windchill 17 °F
Dew Point 9 °F
Humidity 54%
Rainfall in
Snow Depth Not available.
UV 5 out of 12
Pollen .50 out of 12
Air Quality Not available.
Flu Activity Not available.
METAR KDFI 061653Z AUTO 22013G19KT 10SM CLR M09/M16 A3048 RMK AO2 SLP337 T10891156

More Conditions Fewer Conditions

Pressure 30.53 in
Visibility 10.0 miles
Clouds Clear
Windchill 17 °F
Dew Point 9 °F
Humidity 54%
Rainfall in
Snow Depth Not available.
UV 5 out of 12
Pollen .50 out of 12
Air Quality Not available.
Flu Activity Not available.
METAR KDFI 061653Z AUTO 22013G19KT 10SM CLR M09/M16 A3048 RMK AO2 SLP337 T10891156

More Conditions Fewer Conditions

10-Day Weather Forecast

Almanac

Astronomy

Mar. 06, 2015 Rise Set
Actual Time
Civil Twilight
Nautical Twilight
Astronomical Twilight
Moon
Length of Visible Light
Length of Day
Tomorrow will be .
, % of the Moon is Illuminated

Today's Extremes

State Highs State Lows

Community

WunderPhotos

Upload Photos

1,803,337 photos uploaded!

WunderBlogs® & News

Nearby

Air Quality

  Air Quality AQ Index Pollutant
Not available.

Snow Depth

Station Depth Elevation

Earthquake Activity

City Distance Mag. Time & Date
Minimum magnitude displayed is 2.5.

Coastal Water Temperatures

Place Temperature

Nearby Weather Stations